Time;durP1;ratioP1;P1;durP2;ratioP2;P2;SDS_P1;SDS_P2;PMS_P1;PMS_P2;Temp;Humidity;BMP_temperature;BMP_pressure;BME280_temperature;BME280_humidity;BME280_pressure;Samples;Min_cycle;Max_cycle;Signal;HPM_P1;HPM_P2
2023/03/19 00:00:30;;;;;;;13.98;6.90;;;10.60;99.90;;;9.89;100.00;97295.09;5045165;28;20449;-74
2023/03/19 00:02:57;;;;;;;16.75;6.85;;;10.60;99.90;;;9.81;100.00;97290.25;5044231;28;20467;-74
2023/03/19 00:05:28;;;;;;;18.02;8.07;;;10.50;99.90;;;9.81;100.00;97298.03;5042630;28;20499;-74
2023/03/19 00:07:55;;;;;;;27.02;11.02;;;10.60;99.90;;;9.90;100.00;97298.50;5041744;28;20044;-74
2023/03/19 00:10:23;;;;;;;24.00;12.57;;;10.60;99.90;;;9.84;100.00;97292.69;5039204;28;20076;-74
2023/03/19 00:12:50;;;;;;;24.40;10.63;;;10.50;99.90;;;9.98;100.00;97299.84;5039952;28;20055;-74
2023/03/19 00:15:17;;;;;;;21.48;10.35;;;10.50;99.90;;;9.91;100.00;97297.63;5041609;28;20533;-74
2023/03/19 00:17:44;;;;;;;22.00;9.50;;;10.50;99.90;;;9.82;100.00;97296.25;5009573;28;20463;-74
2023/03/19 00:20:13;;;;;;;21.85;9.15;;;10.50;99.90;;;9.91;100.00;97300.22;5058639;28;20053;-74
2023/03/19 00:22:41;;;;;;;19.40;9.25;;;10.50;99.90;;;9.93;100.00;97300.97;5038756;28;20045;-74
2023/03/19 00:25:08;;;;;;;18.30;8.93;;;10.60;99.90;;;9.89;100.00;97305.44;5040142;28;20045;-74
2023/03/19 00:27:36;;;;;;;19.88;7.82;;;10.50;99.90;;;9.96;100.00;97306.84;5038472;28;20115;-74
2023/03/19 00:30:06;;;;;;;16.80;7.43;;;10.60;99.90;;;9.92;100.00;97301.88;5055715;28;20086;-74
2023/03/19 00:32:35;;;;;;;26.73;12.10;;;10.60;99.90;;;9.89;100.00;97304.63;5041281;28;20060;-74
2023/03/19 00:35:05;;;;;;;36.13;18.23;;;10.60;99.90;;;9.96;100.00;97308.63;5038559;28;20049;-74
2023/03/19 00:37:33;;;;;;;41.67;19.38;;;10.60;99.90;;;9.95;100.00;97310.38;5057171;28;20059;-74
2023/03/19 00:40:00;;;;;;;50.42;24.25;;;10.60;99.90;;;10.03;100.00;97304.84;5058568;28;20171;-74
2023/03/19 00:42:28;;;;;;;73.22;36.30;;;10.60;99.90;;;10.04;100.00;97303.94;5042770;28;20056;-74
2023/03/19 00:44:55;;;;;;;31.35;15.35;;;10.60;99.90;;;10.03;100.00;97310.03;5039700;28;20045;-74
2023/03/19 00:47:23;;;;;;;17.77;8.77;;;10.70;99.90;;;9.97;100.00;97305.97;5040950;28;20084;-74
2023/03/19 00:49:50;;;;;;;9.25;3.67;;;10.70;99.90;;;10.09;100.00;97311.50;5026245;28;20048;-74
2023/03/19 00:52:17;;;;;;;7.53;3.03;;;10.70;99.90;;;10.22;100.00;97302.28;5044518;28;20063;-74
2023/03/19 00:54:44;;;;;;;12.63;5.15;;;10.80;99.90;;;10.17;100.00;97302.50;5041271;28;20049;-74
2023/03/19 00:57:11;;;;;;;10.27;4.25;;;10.80;99.90;;;10.07;100.00;97311.56;5039754;28;20612;-75
2023/03/19 00:59:38;;;;;;;15.75;7.47;;;10.80;99.90;;;10.05;100.00;97303.84;5055547;28;20239;-74
2023/03/19 01:02:05;;;;;;;10.35;5.50;;;10.70;99.90;;;10.07;100.00;97303.78;5038338;28;20053;-74
2023/03/19 01:04:32;;;;;;;11.20;4.18;;;10.60;99.90;;;10.01;100.00;97306.66;5039938;28;20502;-74
2023/03/19 01:07:00;;;;;;;13.30;4.35;;;10.70;99.90;;;10.12;100.00;97309.59;5042100;28;20067;-74
2023/03/19 01:09:27;;;;;;;11.65;4.60;;;10.70;99.90;;;10.18;100.00;97309.34;5039269;28;20499;-74
2023/03/19 01:11:54;;;;;;;15.43;5.85;;;10.50;99.90;;;9.89;100.00;97310.63;5044767;28;20045;-74
2023/03/19 01:14:21;;;;;;;13.35;5.68;;;10.50;99.90;;;9.69;100.00;97310.66;5041246;28;20053;-74
2023/03/19 01:16:48;;;;;;;13.75;4.85;;;10.30;99.90;;;9.61;100.00;97318.78;5038773;28;20135;-74
2023/03/19 01:19:15;;;;;;;23.27;7.00;;;10.30;99.90;;;9.63;100.00;97317.81;5041761;28;20049;-74
2023/03/19 01:21:45;;;;;;;15.35;6.22;;;10.20;99.90;;;9.44;100.00;97322.06;5041694;28;20391;-74
2023/03/19 01:24:12;;;;;;;17.55;7.90;;;10.10;99.90;;;9.61;100.00;97314.44;5038825;28;20049;-74
2023/03/19 01:26:40;;;;;;;14.23;6.68;;;10.10;99.90;;;9.59;100.00;97326.59;5041221;28;20782;-74
2023/03/19 01:29:07;;;;;;;13.40;5.30;;;10.00;99.90;;;9.55;100.00;97319.88;5042271;28;20049;-75
2023/03/19 01:31:36;;;;;;;16.10;6.65;;;10.00;99.90;;;9.37;100.00;97324.09;5040181;28;20055;-74
2023/03/19 01:34:03;;;;;;;9.80;4.47;;;10.00;99.90;;;9.43;100.00;97316.06;5023648;28;20037;-74
2023/03/19 01:36:31;;;;;;;12.25;4.85;;;10.00;99.90;;;9.32;100.00;97323.44;5057014;28;20758;-73
2023/03/19 01:38:58;;;;;;;11.05;4.70;;;10.10;99.90;;;9.35;100.00;97319.88;5054821;28;20579;-74
2023/03/19 01:41:25;;;;;;;12.57;4.70;;;10.10;99.90;;;9.34;100.00;97328.56;5037851;28;20060;-74
2023/03/19 01:43:52;;;;;;;11.25;4.72;;;10.00;99.90;;;9.25;100.00;97327.19;5038017;28;20514;-74
2023/03/19 01:46:35;;;;;;;10.52;4.70;;;10.00;99.90;;;9.28;100.00;97326.22;5040421;28;20127;-74
2023/03/19 01:49:06;;;;;;;8.18;3.50;;;10.00;99.90;;;9.33;100.00;97326.88;5056577;28;20484;-74
2023/03/19 01:51:40;;;;;;;9.10;3.83;;;9.90;99.90;;;9.42;100.00;97327.34;5054333;28;20049;-74
2023/03/19 01:54:13;;;;;;;10.23;4.47;;;10.00;99.90;;;9.28;100.00;97323.63;5053218;28;20216;-74
2023/03/19 01:56:42;;;;;;;11.02;3.90;;;9.90;99.90;;;9.29;100.00;97323.56;5027778;28;20049;-74
2023/03/19 01:59:26;;;;;;;11.73;4.82;;;9.90;99.90;;;9.30;100.00;97327.81;5056675;28;20472;-74
2023/03/19 02:02:04;;;;;;;12.70;5.38;;;9.80;99.90;;;9.11;100.00;97324.31;5042214;28;20049;-74
2023/03/19 02:04:33;;;;;;;12.68;5.32;;;9.70;99.90;;;9.06;100.00;97323.69;5029805;28;20115;-74
2023/03/19 02:07:02;;;;;;;14.88;6.10;;;9.70;99.90;;;9.11;100.00;97317.38;5059530;28;20240;-74
2023/03/19 02:09:30;;;;;;;11.38;5.53;;;9.70;99.90;;;9.03;100.00;97321.19;5046454;28;20055;-74
2023/03/19 02:12:00;;;;;;;10.57;5.10;;;9.70;99.90;;;8.94;100.00;97315.50;5045800;28;20124;-74
2023/03/19 02:14:27;;;;;;;13.43;4.97;;;9.60;99.90;;;8.77;100.00;97318.75;5029591;28;20551;-75
2023/03/19 02:16:55;;;;;;;10.10;3.88;;;9.50;99.90;;;8.67;100.00;97321.78;5043708;28;20079;-74
2023/03/19 02:19:39;;;;;;;11.93;4.28;;;9.30;99.90;;;8.45;100.00;97326.91;5044532;28;20076;-74
2023/03/19 02:22:09;;;;;;;11.68;4.68;;;9.20;99.90;;;8.55;100.00;97326.53;5042289;28;20045;-75
2023/03/19 02:25:19;;;;;;;8.10;4.72;;;9.10;99.90;;;8.16;100.00;97329.69;5042186;28;20041;-75
2023/03/19 02:27:46;;;;;;;14.73;5.03;;;9.10;99.90;;;8.16;100.00;97337.44;5025551;28;20065;-74
2023/03/19 02:30:30;;;;;;;14.07;4.53;;;9.00;99.90;;;8.17;100.00;97328.75;5044257;28;20051;-74
2023/03/19 02:32:58;;;;;;;9.80;4.25;;;9.00;99.90;;;8.12;100.00;97333.28;5056478;28;20053;-74
2023/03/19 02:35:26;;;;;;;10.70;3.75;;;9.00;99.90;;;8.24;100.00;97334.56;5043650;28;20075;-74
2023/03/19 02:37:53;;;;;;;8.20;3.50;;;9.00;99.90;;;8.37;100.00;97338.38;5046406;28;20041;-74
2023/03/19 02:40:32;;;;;;;9.27;3.80;;;9.00;99.90;;;8.35;100.00;97334.16;5044543;28;20530;-74
2023/03/19 02:43:00;;;;;;;6.45;2.88;;;8.90;99.90;;;8.28;100.00;97333.53;5057374;28;20049;-74
2023/03/19 02:45:31;;;;;;;8.43;3.90;;;8.90;99.90;;;8.32;100.00;97339.44;5040807;28;20053;-74
2023/03/19 02:47:59;;;;;;;15.85;4.18;;;9.00;99.90;;;8.25;100.00;97338.81;5044564;28;20052;-74
2023/03/19 02:50:26;;;;;;;5.55;3.03;;;8.90;99.90;;;8.26;100.00;97345.69;5041538;28;20053;-74
2023/03/19 02:52:53;;;;;;;7.65;3.50;;;8.90;99.90;;;8.35;100.00;97339.34;5045541;28;20496;-74
2023/03/19 02:55:21;;;;;;;10.63;3.20;;;8.90;99.90;;;8.40;100.00;97340.03;5038769;28;20052;-75
2023/03/19 02:57:48;;;;;;;9.73;4.20;;;9.00;99.90;;;8.55;100.00;97348.94;5041952;28;20053;-74
2023/03/19 03:00:19;;;;;;;6.55;3.30;;;8.90;99.90;;;8.61;100.00;97347.88;5040456;28;20146;-74
2023/03/19 03:02:46;;;;;;;8.75;3.20;;;9.00;99.90;;;8.64;100.00;97350.34;5056439;28;20053;-75
2023/03/19 03:05:13;;;;;;;8.38;3.15;;;9.10;99.90;;;8.71;100.00;97342.28;5045095;28;20041;-74
2023/03/19 03:07:42;;;;;;;8.30;3.03;;;9.20;99.90;;;8.86;100.00;97337.41;5022780;28;20590;-75
2023/03/19 03:10:10;;;;;;;8.00;3.08;;;9.20;99.90;;;8.87;100.00;97346.84;5058065;28;20059;-74
2023/03/19 03:12:38;;;;;;;6.25;2.47;;;9.30;99.90;;;8.98;100.00;97342.94;5041484;28;20092;-75
2023/03/19 03:15:09;;;;;;;6.43;2.38;;;9.30;99.90;;;8.93;100.00;97336.25;5056625;28;20056;-74
2023/03/19 03:17:38;;;;;;;7.00;2.83;;;9.20;99.90;;;8.79;100.00;97331.63;5042055;28;20044;-75
2023/03/19 03:20:07;;;;;;;8.35;3.80;;;9.20;99.90;;;8.71;100.00;97331.94;5056789;28;20120;-74
2023/03/19 03:22:34;;;;;;;6.22;2.83;;;9.10;99.90;;;8.77;100.00;97329.09;5040669;28;20076;-74
2023/03/19 03:25:01;;;;;;;7.18;2.95;;;9.10;99.90;;;8.79;100.00;97332.47;5044344;28;20132;-75
2023/03/19 03:27:28;;;;;;;10.23;3.22;;;9.10;99.90;;;8.70;100.00;97338.00;5043350;28;20049;-74
2023/03/19 03:29:56;;;;;;;7.85;2.90;;;9.10;99.90;;;8.67;100.00;97339.88;5057927;28;20042;-74
2023/03/19 03:32:23;;;;;;;7.40;2.88;;;9.10;99.90;;;8.79;100.00;97335.06;5044068;28;20053;-75
2023/03/19 03:34:50;;;;;;;9.43;3.33;;;9.20;99.90;;;8.84;100.00;97337.47;5043849;28;20119;-74
2023/03/19 03:37:18;;;;;;;6.35;2.65;;;9.40;99.90;;;8.90;100.00;97326.03;5040401;28;20088;-74
2023/03/19 03:39:45;;;;;;;10.10;3.15;;;9.50;99.90;;;8.93;100.00;97328.50;5026670;28;20393;-74
2023/03/19 03:42:12;;;;;;;9.30;3.13;;;9.50;99.90;;;8.90;100.00;97332.06;5043197;28;20143;-74
2023/03/19 03:44:39;;;;;;;7.03;2.63;;;9.60;99.90;;;9.02;100.00;97330.72;5042762;28;20124;-74
2023/03/19 03:47:07;;;;;;;8.15;2.95;;;9.60;99.90;;;8.93;100.00;97338.84;5031895;28;20063;-74
2023/03/19 03:49:34;;;;;;;8.00;3.08;;;9.60;99.90;;;8.86;100.00;97327.91;5025340;28;20044;-75
2023/03/19 03:52:01;;;;;;;8.63;3.17;;;9.60;99.90;;;8.78;100.00;97335.97;5058112;28;20057;-74
2023/03/19 03:54:28;;;;;;;6.47;2.92;;;9.60;99.90;;;8.82;100.00;97338.44;5045662;28;20049;-75
2023/03/19 03:56:56;;;;;;;8.57;2.90;;;9.50;99.90;;;8.72;100.00;97338.78;5044211;28;20045;-74
2023/03/19 03:59:24;;;;;;;6.78;2.92;;;9.40;99.90;;;8.84;100.00;97344.38;5040565;28;20087;-74
2023/03/19 04:01:51;;;;;;;5.55;2.35;;;9.30;99.90;;;8.78;100.00;97340.28;5042883;28;20041;-74
2023/03/19 04:04:19;;;;;;;6.22;2.40;;;9.30;99.90;;;8.77;100.00;97344.63;5042562;28;20423;-74
2023/03/19 04:06:46;;;;;;;9.32;3.60;;;9.40;99.90;;;8.70;100.00;97343.19;5044273;28;20534;-74
2023/03/19 04:09:16;;;;;;;9.55;3.58;;;9.30;99.90;;;8.79;100.00;97347.16;5041431;28;20041;-74
2023/03/19 04:11:43;;;;;;;9.05;3.78;;;9.40;99.90;;;8.73;100.00;97356.00;5040665;28;20111;-74
2023/03/19 04:14:10;;;;;;;6.80;3.10;;;9.40;99.90;;;8.74;100.00;97359.44;5046165;28;20582;-75
2023/03/19 04:16:37;;;;;;;6.65;2.95;;;9.40;99.90;;;8.70;100.00;97358.69;5040849;28;20057;-75
2023/03/19 04:19:06;;;;;;;9.85;3.33;;;9.40;99.90;;;8.75;100.00;97358.53;5042150;28;20061;-75
2023/03/19 04:21:33;;;;;;;6.85;2.72;;;9.40;99.90;;;8.83;100.00;97363.44;5054837;28;20573;-74
2023/03/19 04:24:01;;;;;;;9.15;3.00;;;9.30;99.90;;;8.85;100.00;97367.63;5042073;28;20052;-74
2023/03/19 04:26:28;;;;;;;8.88;2.88;;;9.40;99.90;;;8.88;100.00;97362.31;5039588;28;20053;-74
2023/03/19 04:28:56;;;;;;;8.13;3.13;;;9.40;99.90;;;8.85;100.00;97361.59;5040643;28;20045;-75
2023/03/19 04:31:24;;;;;;;8.85;2.38;;;9.40;99.90;;;8.80;100.00;97359.19;5026968;28;20088;-73
2023/03/19 04:33:52;;;;;;;6.50;2.92;;;9.40;99.90;;;8.75;100.00;97364.53;5041163;28;20044;-75
2023/03/19 04:36:19;;;;;;;8.45;2.90;;;9.30;99.90;;;8.79;100.00;97355.75;5042038;28;20675;-75
2023/03/19 04:38:47;;;;;;;8.75;2.72;;;9.20;99.90;;;8.65;100.00;97360.63;5027684;28;20041;-74
2023/03/19 04:41:16;;;;;;;7.30;3.05;;;9.10;99.90;;;8.64;100.00;97360.69;5039436;28;20047;-74
2023/03/19 04:43:44;;;;;;;5.93;2.78;;;9.10;99.90;;;8.69;100.00;97367.38;5038978;28;20037;-73
2023/03/19 04:46:11;;;;;;;6.80;2.75;;;9.10;99.90;;;8.66;100.00;97354.53;5044973;28;20056;-74
2023/03/19 04:48:38;;;;;;;7.53;3.05;;;9.00;99.90;;;8.46;100.00;97357.91;5041548;28;20052;-73
2023/03/19 04:51:08;;;;;;;9.57;3.42;;;9.10;99.90;;;8.50;100.00;97359.47;5042312;28;20392;-75
2023/03/19 04:53:36;;;;;;;6.18;2.90;;;9.00;99.90;;;8.33;100.00;97367.81;5056599;28;20791;-74
2023/03/19 04:56:05;;;;;;;9.52;2.90;;;8.90;99.90;;;8.26;100.00;97365.53;5043212;28;20049;-74
2023/03/19 04:58:34;;;;;;;5.72;2.78;;;8.90;99.90;;;8.26;100.00;97373.28;5043006;28;20132;-74
2023/03/19 05:01:01;;;;;;;7.53;3.13;;;8.80;99.90;;;8.13;100.00;97373.72;5040196;28;20084;-74
2023/03/19 05:03:28;;;;;;;8.32;2.72;;;8.80;99.90;;;8.18;100.00;97373.53;5039807;28;20478;-74
2023/03/19 05:05:55;;;;;;;7.20;2.72;;;8.70;99.90;;;8.30;100.00;97367.09;5039952;28;20065;-74
2023/03/19 05:08:22;;;;;;;5.88;2.80;;;8.70;99.90;;;8.16;100.00;97375.34;5042115;28;20052;-74
2023/03/19 05:10:49;;;;;;;6.95;3.10;;;8.70;99.90;;;8.06;100.00;97367.09;5040192;28;20388;-74
2023/03/19 05:13:16;;;;;;;8.85;3.08;;;8.80;99.90;;;8.21;100.00;97359.66;5041247;28;20053;-74
2023/03/19 05:15:47;;;;;;;8.25;3.03;;;8.80;99.90;;;8.20;100.00;97368.34;5040967;28;20132;-74
2023/03/19 05:18:15;;;;;;;6.25;2.90;;;8.90;99.90;;;8.34;100.00;97372.09;5042269;28;20121;-74
2023/03/19 05:20:42;;;;;;;9.10;2.55;;;8.90;99.90;;;8.42;100.00;97374.44;5035967;28;20068;-74
2023/03/19 05:23:10;;;;;;;10.73;2.78;;;8.80;99.90;;;8.32;100.00;97384.22;5041469;28;20117;-74
2023/03/19 05:25:37;;;;;;;8.65;3.15;;;8.80;99.90;;;8.23;100.00;97381.97;5035956;28;20060;-74
2023/03/19 05:28:06;;;;;;;8.98;2.95;;;8.80;99.90;;;8.17;100.00;97380.47;5042823;28;20116;-74
2023/03/19 05:30:34;;;;;;;10.32;3.97;;;8.80;99.90;;;8.06;100.00;97377.44;5041158;28;20215;-75
2023/03/19 05:33:02;;;;;;;13.30;3.53;;;8.90;99.90;;;7.98;100.00;97387.19;5026998;28;20076;-74
2023/03/19 05:35:30;;;;;;;6.15;2.53;;;8.90;99.90;;;8.15;100.00;97384.84;5046106;28;20056;-74
2023/03/19 05:37:57;;;;;;;6.57;3.30;;;8.80;99.90;;;8.20;100.00;97383.84;5046799;28;20057;-74
2023/03/19 05:40:25;;;;;;;7.38;2.60;;;8.80;99.90;;;8.30;100.00;97387.78;5040256;28;20063;-74
2023/03/19 05:42:52;;;;;;;7.20;2.65;;;8.90;99.90;;;8.22;100.00;97382.88;5044944;28;20168;-74
2023/03/19 05:45:19;;;;;;;7.05;3.65;;;8.90;99.90;;;8.27;100.00;97382.72;5047035;28;20506;-74
2023/03/19 05:47:48;;;;;;;9.50;4.72;;;9.00;99.90;;;8.19;100.00;97393.34;5046022;28;20084;-74
2023/03/19 05:50:19;;;;;;;7.47;4.28;;;8.80;99.90;;;8.25;100.00;97397.44;5045481;28;20095;-74
2023/03/19 05:52:46;;;;;;;7.38;3.75;;;8.80;99.90;;;8.30;100.00;97398.13;5042888;28;20041;-74
2023/03/19 05:55:13;;;;;;;11.90;4.85;;;8.80;99.90;;;8.23;100.00;97388.91;5039803;28;20044;-75
2023/03/19 05:57:41;;;;;;;7.82;3.92;;;8.80;99.90;;;8.14;100.00;97388.34;5043779;28;20048;-74
2023/03/19 06:00:11;;;;;;;8.95;3.88;;;8.80;99.90;;;8.19;100.00;97388.19;5040357;28;20053;-74
2023/03/19 06:02:38;;;;;;;9.85;3.70;;;8.90;99.90;;;8.26;100.00;97386.22;5044405;28;20140;-74
2023/03/19 06:05:06;;;;;;;7.72;3.55;;;8.90;99.90;;;8.32;100.00;97393.72;5028777;28;20072;-74
2023/03/19 06:07:32;;;;;;;10.73;3.28;;;8.90;99.90;;;8.19;100.00;97390.75;5045077;28;20056;-74
2023/03/19 06:10:00;;;;;;;9.73;3.95;;;8.80;99.90;;;8.32;100.00;97402.31;5030642;28;20075;-74
2023/03/19 06:12:27;;;;;;;9.93;3.15;;;8.80;99.90;;;8.41;100.00;97405.53;5043750;28;20325;-74
2023/03/19 06:14:55;;;;;;;7.30;3.35;;;8.70;99.90;;;8.45;100.00;97404.50;5044209;28;20348;-74
2023/03/19 06:17:22;;;;;;;7.85;3.30;;;8.80;99.90;;;8.28;100.00;97411.13;5043366;28;20068;-74
2023/03/19 06:19:49;;;;;;;8.55;3.45;;;8.80;99.90;;;8.35;100.00;97409.16;5044243;28;20059;-74
2023/03/19 06:22:16;;;;;;;8.73;3.65;;;8.80;99.90;;;8.47;100.00;97420.81;5043764;28;20049;-74
2023/03/19 06:24:43;;;;;;;7.78;3.95;;;8.80;99.90;;;8.47;100.00;97420.81;5044328;28;20041;-74
2023/03/19 06:27:11;;;;;;;9.50;4.95;;;8.80;99.90;;;8.44;100.00;97414.03;5044647;28;20049;-74
2023/03/19 06:29:38;;;;;;;8.23;3.97;;;8.80;99.90;;;8.62;100.00;97414.22;5053257;28;20045;-74
2023/03/19 06:32:05;;;;;;;7.38;3.78;;;8.80;99.90;;;8.69;100.00;97420.84;5043953;28;20044;-74
2023/03/19 06:34:32;;;;;;;6.50;3.45;;;8.80;99.90;;;8.77;100.00;97417.09;5045776;28;20056;-73
2023/03/19 06:36:59;;;;;;;7.35;3.55;;;8.90;99.90;;;8.69;100.00;97413.09;5026416;28;20049;-74
2023/03/19 06:39:28;;;;;;;8.23;3.28;;;9.00;99.90;;;8.72;100.00;97418.16;5056329;28;20056;-74
2023/03/19 06:41:56;;;;;;;6.50;3.13;;;9.10;99.90;;;8.79;100.00;97424.78;5041471;28;20052;-74
2023/03/19 06:44:24;;;;;;;7.68;3.00;;;9.20;99.90;;;8.99;100.00;97424.03;5037255;28;20051;-74
2023/03/19 06:46:51;;;;;;;7.68;3.30;;;9.30;99.90;;;8.92;100.00;97415.66;5056692;28;20448;-74
2023/03/19 06:49:18;;;;;;;8.95;3.72;;;9.40;99.90;;;8.95;100.00;97409.53;5040749;28;20470;-74
2023/03/19 06:51:45;;;;;;;9.93;4.03;;;9.40;99.90;;;9.14;100.00;97420.84;5043429;28;20152;-74
2023/03/19 06:54:12;;;;;;;8.55;3.45;;;9.40;99.90;;;9.11;100.00;97418.38;5041610;28;20613;-74
2023/03/19 06:56:39;;;;;;;8.52;3.90;;;9.50;99.90;;;9.07;100.00;97416.81;5042048;28;20060;-74
2023/03/19 06:59:07;;;;;;;6.38;3.25;;;9.50;99.90;;;9.35;100.00;97415.69;5041635;28;20435;-74
2023/03/19 07:01:34;;;;;;;8.77;3.90;;;9.70;99.90;;;9.40;100.00;97417.22;5026654;28;20391;-74
2023/03/19 07:04:01;;;;;;;9.23;4.43;;;9.70;99.90;;;9.39;100.00;97414.69;5042507;28;20135;-75
2023/03/19 07:06:29;;;;;;;7.65;3.97;;;9.80;99.90;;;9.60;100.00;97419.00;5043944;28;20045;-74
2023/03/19 07:08:56;;;;;;;5.63;3.03;;;9.90;99.90;;;9.70;100.00;97424.66;5042209;28;20052;-75
2023/03/19 07:11:23;;;;;;;9.73;3.58;;;9.90;99.90;;;9.56;100.00;97433.00;5040896;28;20051;-75
2023/03/19 07:13:50;;;;;;;7.70;3.47;;;9.90;99.90;;;9.53;100.00;97424.47;5041250;28;20053;-74
2023/03/19 07:16:18;;;;;;;6.25;3.05;;;9.90;99.90;;;9.47;100.00;97433.38;5038101;28;20234;-74
2023/03/19 07:18:45;;;;;;;8.98;2.95;;;10.00;99.90;;;9.52;100.00;97434.00;5058348;28;20164;-74
2023/03/19 07:21:12;;;;;;;10.43;2.80;;;10.10;99.90;;;9.53;100.00;97434.84;5043196;28;20057;-74
2023/03/19 07:23:40;;;;;;;6.00;2.90;;;10.20;99.90;;;9.62;100.00;97435.34;5026229;28;20411;-74
2023/03/19 07:26:07;;;;;;;9.18;3.55;;;10.20;99.90;;;9.82;100.00;97444.03;5040293;28;20383;-74
2023/03/19 07:28:35;;;;;;;7.07;3.95;;;10.30;99.90;;;9.92;100.00;97441.88;5055248;28;20064;-74
2023/03/19 07:31:02;;;;;;;11.13;4.20;;;10.30;99.90;;;9.87;100.00;97438.66;5045716;28;20499;-75
2023/03/19 07:33:30;;;;;;;9.18;3.38;;;10.30;99.90;;;10.18;100.00;97443.38;5022876;28;20088;-74
2023/03/19 07:35:57;;;;;;;10.18;3.70;;;10.30;99.90;;;10.23;100.00;97449.19;5042523;28;20056;-75
2023/03/19 07:38:24;;;;;;;6.57;3.03;;;10.30;99.90;;;10.05;100.00;97445.63;5042955;28;20049;-75
2023/03/19 07:40:52;;;;;;;7.10;4.00;;;10.30;99.90;;;10.03;100.00;97443.13;5045168;28;20500;-74
2023/03/19 07:43:28;;;;;;;6.20;2.78;;;10.40;99.90;;;10.22;100.00;97435.41;5056108;28;20106;-75
2023/03/19 07:45:56;;;;;;;8.57;3.70;;;10.40;99.90;;;10.04;100.00;97444.81;5045062;28;20045;-75
2023/03/19 07:48:23;;;;;;;9.15;2.58;;;10.40;99.90;;;10.22;100.00;97432.81;5044972;28;20056;-74
2023/03/19 07:50:51;;;;;;;9.10;2.90;;;10.40;99.90;;;10.17;100.00;97436.50;5042789;28;20471;-75
2023/03/19 07:53:18;;;;;;;8.60;3.25;;;10.40;99.90;;;10.03;100.00;97437.94;5041031;28;20070;-74
2023/03/19 07:55:48;;;;;;;5.95;3.00;;;10.50;99.90;;;10.22;100.00;97438.00;5045585;28;20049;-74
2023/03/19 07:58:15;;;;;;;7.43;2.85;;;10.50;99.90;;;10.22;100.00;97439.75;5042482;28;20055;-74
2023/03/19 08:00:43;;;;;;;6.88;3.00;;;10.50;99.90;;;10.14;100.00;97436.63;5042746;28;20044;-74
2023/03/19 08:03:11;;;;;;;7.75;3.10;;;10.60;99.90;;;10.20;100.00;97439.81;5029410;28;20083;-74
2023/03/19 08:05:38;;;;;;;9.15;2.90;;;10.70;99.90;;;10.20;100.00;97431.19;5044807;28;20051;-74
2023/03/19 08:08:06;;;;;;;5.75;3.20;;;10.70;99.90;;;10.17;100.00;97432.16;5044491;28;20415;-74
2023/03/19 08:10:33;;;;;;;7.47;2.85;;;10.70;99.90;;;10.35;100.00;97435.72;5032566;28;20055;-74
2023/03/19 08:13:04;;;;;;;5.85;2.63;;;10.60;99.90;;;10.22;100.00;97443.19;5056852;28;20109;-74
2023/03/19 08:15:31;;;;;;;6.68;2.90;;;10.60;99.90;;;10.31;100.00;97433.31;5042932;28;20053;-74
2023/03/19 08:18:00;;;;;;;5.70;2.75;;;10.50;99.90;;;10.21;100.00;97433.69;5027468;28;20055;-74
2023/03/19 08:20:27;;;;;;;9.20;3.03;;;10.60;99.90;;;10.26;100.00;97441.28;5056359;28;20539;-75
2023/03/19 08:22:56;;;;;;;8.57;3.70;;;10.60;99.90;;;10.17;100.00;97433.91;5056904;28;20053;-75
2023/03/19 08:25:24;;;;;;;6.72;3.50;;;10.60;99.90;;;10.13;100.00;97440.16;5045190;28;20433;-73
2023/03/19 08:27:52;;;;;;;9.18;3.80;;;10.60;99.90;;;10.21;100.00;97438.88;5060376;28;20052;-73
2023/03/19 08:30:20;;;;;;;8.35;3.38;;;10.70;99.90;;;10.36;100.00;97441.78;5043430;28;20580;-74
2023/03/19 08:32:48;;;;;;;6.47;3.45;;;10.60;99.90;;;10.42;100.00;97437.16;5041039;28;20055;-75
2023/03/19 08:35:17;;;;;;;11.45;3.90;;;10.70;99.90;;;10.51;100.00;97440.25;5026907;28;20115;-74
2023/03/19 08:37:45;;;;;;;7.55;2.65;;;10.60;99.90;;;10.55;100.00;97440.03;5058140;28;20136;-75
2023/03/19 08:40:12;;;;;;;7.65;3.13;;;10.80;99.90;;;10.70;100.00;97435.91;5039971;28;20049;-75
2023/03/19 08:42:41;;;;;;;8.13;3.10;;;10.80;99.90;;;10.47;100.00;97434.38;5055346;28;20132;-75
2023/03/19 08:45:13;;;;;;;7.55;3.03;;;10.90;99.90;;;10.65;100.00;97435.25;5058339;28;20550;-73
2023/03/19 08:47:42;;;;;;;6.68;2.97;;;11.00;99.90;;;10.64;100.00;97441.38;5056404;28;20140;-74
2023/03/19 08:50:10;;;;;;;10.20;3.00;;;11.00;99.90;;;10.64;100.00;97425.81;5041522;28;20490;-74
2023/03/19 08:52:38;;;;;;;6.80;2.80;;;11.00;99.90;;;10.83;100.00;97442.25;5043338;28;20118;-74
2023/03/19 08:55:09;;;;;;;10.48;3.63;;;11.10;99.90;;;10.78;100.00;97438.16;5042789;28;20045;-74
2023/03/19 08:57:36;;;;;;;8.50;3.50;;;11.10;99.90;;;11.21;100.00;97438.75;5057430;28;20060;-74
2023/03/19 09:00:07;;;;;;;6.60;3.35;;;11.10;99.90;;;11.09;100.00;97432.41;5046115;28;20132;-74
2023/03/19 09:02:34;;;;;;;8.30;3.05;;;11.40;99.90;;;11.76;100.00;97430.03;5015958;28;20079;-75
2023/03/19 09:05:02;;;;;;;6.35;3.17;;;12.00;99.90;;;12.19;100.00;97426.16;5034249;28;20049;-74
2023/03/19 09:07:29;;;;;;;8.70;3.47;;;12.70;99.90;;;12.51;100.00;97440.09;5046167;28;20060;-74
2023/03/19 09:09:56;;;;;;;5.88;2.70;;;13.00;99.90;;;13.37;100.00;97435.47;5014250;28;20052;-74
2023/03/19 09:12:24;;;;;;;6.43;2.85;;;13.10;99.90;;;13.67;100.00;97424.22;5045853;28;20087;-74
2023/03/19 09:14:51;;;;;;;5.97;2.40;;;13.10;99.90;;;13.67;100.00;97442.47;5036696;28;20053;-74
2023/03/19 09:17:18;;;;;;;7.50;2.80;;;13.40;99.90;;;13.97;100.00;97441.63;5029598;28;20475;-74
2023/03/19 09:19:46;;;;;;;5.95;2.78;;;13.80;99.90;;;13.84;100.00;97448.47;5053609;28;20049;-74
2023/03/19 09:22:12;;;;;;;9.73;3.00;;;13.50;99.90;;;13.90;100.00;97445.53;5041678;28;20129;-74
2023/03/19 09:24:40;;;;;;;8.05;2.70;;;13.70;99.90;;;14.14;100.00;97457.16;5042188;28;20049;-74
2023/03/19 09:27:07;;;;;;;8.82;2.85;;;13.70;99.90;;;13.70;100.00;97442.28;5045126;28;20046;-74
2023/03/19 09:29:37;;;;;;;5.43;2.65;;;13.90;99.90;;;13.71;100.00;97469.22;5055863;28;20056;-74
2023/03/19 09:32:05;;;;;;;8.10;2.67;;;13.50;99.90;;;14.06;100.00;97456.75;5041850;28;20076;-74
2023/03/19 09:34:32;;;;;;;6.55;2.90;;;13.60;99.90;;;14.42;100.00;97458.94;5038711;28;20049;-75
2023/03/19 09:36:59;;;;;;;8.05;2.72;;;13.60;99.90;;;13.55;100.00;97467.47;5040494;28;20057;-74
2023/03/19 09:39:26;;;;;;;8.20;2.60;;;13.90;99.90;;;13.74;100.00;97467.28;5041483;28;20135;-74
2023/03/19 09:42:04;;;;;;;4.68;2.22;;;13.50;99.90;;;13.36;100.00;97472.03;5026377;28;20055;-74
2023/03/19 09:44:38;;;;;;;6.88;2.53;;;13.10;99.90;;;12.60;100.00;97459.59;5037615;28;20053;-74
2023/03/19 09:47:32;;;;;;;5.68;2.55;;;12.90;99.90;;;11.54;100.00;97475.31;5053544;28;20048;-74
2023/03/19 09:50:22;;;;;;;9.52;2.92;;;12.30;99.90;;;11.02;100.00;97477.75;5037756;28;20545;-73
2023/03/19 09:53:07;;;;;;;6.45;2.65;;;11.90;99.90;;;10.73;100.00;97492.03;5040124;28;20160;-73
2023/03/19 09:55:47;;;;;;;6.03;2.63;;;11.60;99.90;;;10.50;100.00;97483.53;5051885;28;20050;-73
2023/03/19 09:58:31;;;;;;;6.65;3.10;;;11.20;99.90;;;10.45;100.00;97488.06;5041691;28;20076;-72
2023/03/19 10:00:59;;;;;;;7.18;2.85;;;11.00;99.90;;;10.36;100.00;97501.44;5054699;28;20368;-73
2023/03/19 10:03:32;;;;;;;9.57;3.60;;;10.90;99.90;;;10.26;100.00;97500.94;5053796;28;20131;-72
2023/03/19 10:06:28;;;;;;;7.78;4.32;;;10.80;99.90;;;10.23;100.00;97496.72;5039224;28;20111;-72
2023/03/19 10:09:35;;;;;;;10.50;4.93;;;10.80;99.90;;;10.54;100.00;97510.19;5040180;28;20136;-72
2023/03/19 10:12:21;;;;;;;11.73;4.95;;;10.80;99.90;;;10.54;100.00;97521.41;5038390;28;20050;-72
2023/03/19 10:15:24;;;;;;;7.75;3.92;;;10.90;99.90;;;10.76;100.00;97517.84;5055954;28;20444;-72
2023/03/19 10:18:14;;;;;;;7.18;3.83;;;11.00;99.90;;;10.98;100.00;97515.16;5056622;28;20121;-72
2023/03/19 10:21:02;;;;;;;9.20;4.35;;;11.10;99.90;;;10.98;100.00;97521.19;5053129;28;20060;-72
2023/03/19 10:23:39;;;;;;;7.15;3.42;;;11.40;99.90;;;10.72;100.00;97516.31;5042721;28;20057;-72
2023/03/19 10:26:18;;;;;;;7.85;3.55;;;11.30;99.90;;;10.53;100.00;97511.09;5047341;28;20335;-72